sensor_id;sensor_type;location;lat;lon;timestamp;temperature;humidity
3816;DHT22;1923;48.154;11.536;2023-01-16T14:46:52;6.20;99.90
3816;DHT22;1923;48.154;11.536;2023-01-16T14:49:56;7.90;99.90
3816;DHT22;1923;48.154;11.536;2023-01-16T14:52:48;7.70;99.90
3816;DHT22;1923;48.154;11.536;2023-01-16T14:55:46;7.70;99.90
3816;DHT22;1923;48.154;11.536;2023-01-16T14:58:20;7.70;99.90
3816;DHT22;1923;48.154;11.536;2023-01-16T15:00:51;7.70;99.90
3816;DHT22;1923;48.154;11.536;2023-01-16T15:03:27;7.70;99.90
3816;DHT22;1923;48.154;11.536;2023-01-16T15:05:57;7.60;99.90
3816;DHT22;1923;48.154;11.536;2023-01-16T15:08:34;7.50;99.90
3816;DHT22;1923;48.154;11.536;2023-01-16T15:11:08;7.40;99.90
3816;DHT22;1923;48.154;11.536;2023-01-16T15:14:05;7.40;99.90
3816;DHT22;1923;48.154;11.536;2023-01-16T15:17:01;7.50;99.90
3816;DHT22;1923;48.154;11.536;2023-01-16T15:20:15;7.50;99.90
3816;DHT22;1923;48.154;11.536;2023-01-16T15:23:02;7.30;99.90
3816;DHT22;1923;48.154;11.536;2023-01-16T15:25:52;7.30;99.90
3816;DHT22;1923;48.154;11.536;2023-01-16T15:28:28;7.10;99.90
3816;DHT22;1923;48.154;11.536;2023-01-16T15:31:00;7.10;99.90
3816;DHT22;1923;48.154;11.536;2023-01-16T15:33:32;7.10;99.90
3816;DHT22;1923;48.154;11.536;2023-01-16T15:36:22;7.20;99.90
3816;DHT22;1923;48.154;11.536;2023-01-16T15:38:53;7.30;99.90
3816;DHT22;1923;48.154;11.536;2023-01-16T15:41:25;7.30;99.90
3816;DHT22;1923;48.154;11.536;2023-01-16T15:44:13;7.10;99.90
3816;DHT22;1923;48.154;11.536;2023-01-16T15:47:13;7.00;99.90
3816;DHT22;1923;48.154;11.536;2023-01-16T15:49:50;7.00;99.90
3816;DHT22;1923;48.154;11.536;2023-01-16T15:52:28;6.80;99.90
3816;DHT22;1923;48.154;11.536;2023-01-16T15:54:56;6.70;99.90
3816;DHT22;1923;48.154;11.536;2023-01-16T15:57:25;6.70;99.90
3816;DHT22;1923;48.154;11.536;2023-01-16T15:59:55;6.70;99.90
3816;DHT22;1923;48.154;11.536;2023-01-16T16:02:25;6.70;99.90
3816;DHT22;1923;48.154;11.536;2023-01-16T16:04:59;6.60;99.90
3816;DHT22;1923;48.154;11.536;2023-01-16T16:07:29;6.60;99.90
3816;DHT22;1923;48.154;11.536;2023-01-16T16:09:59;6.50;99.90
3816;DHT22;1923;48.154;11.536;2023-01-16T16:12:28;6.50;99.90
3816;DHT22;1923;48.154;11.536;2023-01-16T16:15:16;6.50;99.90
3816;DHT22;1923;48.154;11.536;2023-01-16T16:18:12;6.50;99.90
3816;DHT22;1923;48.154;11.536;2023-01-16T16:20:41;6.50;99.90
3816;DHT22;1923;48.154;11.536;2023-01-16T16:23:14;6.50;99.90
3816;DHT22;1923;48.154;11.536;2023-01-16T16:25:49;6.30;99.90
3816;DHT22;1923;48.154;11.536;2023-01-16T16:28:23;6.20;99.90
3816;DHT22;1923;48.154;11.536;2023-01-16T16:30:56;6.20;99.90
3816;DHT22;1923;48.154;11.536;2023-01-16T16:33:26;6.20;99.90
3816;DHT22;1923;48.154;11.536;2023-01-16T16:35:56;6.20;99.90
3816;DHT22;1923;48.154;11.536;2023-01-16T16:38:29;6.00;99.90
3816;DHT22;1923;48.154;11.536;2023-01-16T16:44:22;6.00;99.90
3816;DHT22;1923;48.154;11.536;2023-01-16T16:46:55;5.90;99.90
3816;DHT22;1923;48.154;11.536;2023-01-16T16:49:29;5.90;99.90
3816;DHT22;1923;48.154;11.536;2023-01-16T16:52:20;5.90;99.90
3816;DHT22;1923;48.154;11.536;2023-01-16T16:54:53;5.90;99.90
3816;DHT22;1923;48.154;11.536;2023-01-16T16:57:23;5.90;99.90
3816;DHT22;1923;48.154;11.536;2023-01-16T16:59:54;5.90;99.90
3816;DHT22;1923;48.154;11.536;2023-01-16T17:02:23;5.80;99.90
3816;DHT22;1923;48.154;11.536;2023-01-16T17:04:51;5.80;99.90
3816;DHT22;1923;48.154;11.536;2023-01-16T17:07:19;5.80;99.90
3816;DHT22;1923;48.154;11.536;2023-01-16T17:09:48;5.80;99.90
3816;DHT22;1923;48.154;11.536;2023-01-16T17:12:18;5.80;99.90
3816;DHT22;1923;48.154;11.536;2023-01-16T17:14:47;5.80;99.90
3816;DHT22;1923;48.154;11.536;2023-01-16T17:17:17;5.80;99.90
3816;DHT22;1923;48.154;11.536;2023-01-16T17:22:21;5.80;99.90
3816;DHT22;1923;48.154;11.536;2023-01-16T17:24:49;5.90;99.90
3816;DHT22;1923;48.154;11.536;2023-01-16T17:27:20;6.00;99.90
3816;DHT22;1923;48.154;11.536;2023-01-16T17:29:48;6.00;99.90
3816;DHT22;1923;48.154;11.536;2023-01-16T17:32:26;6.00;99.90
3816;DHT22;1923;48.154;11.536;2023-01-16T17:34:57;6.00;99.90
3816;DHT22;1923;48.154;11.536;2023-01-16T17:37:25;5.90;99.90
3816;DHT22;1923;48.154;11.536;2023-01-16T17:39:53;5.90;99.90
3816;DHT22;1923;48.154;11.536;2023-01-16T17:42:27;5.90;99.90
3816;DHT22;1923;48.154;11.536;2023-01-16T17:45:28;5.90;99.90
3816;DHT22;1923;48.154;11.536;2023-01-16T17:48:14;5.90;99.90
3816;DHT22;1923;48.154;11.536;2023-01-16T17:50:43;5.80;99.90
3816;DHT22;1923;48.154;11.536;2023-01-16T17:53:13;5.80;99.90
3816;DHT22;1923;48.154;11.536;2023-01-16T17:55:44;5.80;99.90
3816;DHT22;1923;48.154;11.536;2023-01-16T17:58:25;5.90;99.90
3816;DHT22;1923;48.154;11.536;2023-01-16T18:00:57;5.80;99.90
3816;DHT22;1923;48.154;11.536;2023-01-16T18:03:26;5.80;99.90
3816;DHT22;1923;48.154;11.536;2023-01-16T18:05:58;5.90;99.90
3816;DHT22;1923;48.154;11.536;2023-01-16T18:08:27;5.90;99.90
3816;DHT22;1923;48.154;11.536;2023-01-16T18:10:55;5.90;99.90
3816;DHT22;1923;48.154;11.536;2023-01-16T18:13:25;5.60;99.90
3816;DHT22;1923;48.154;11.536;2023-01-16T18:16:14;5.70;99.90
3816;DHT22;1923;48.154;11.536;2023-01-16T18:18:59;5.50;99.90
3816;DHT22;1923;48.154;11.536;2023-01-16T18:21:28;5.40;99.90
3816;DHT22;1923;48.154;11.536;2023-01-16T18:24:13;5.50;99.90
3816;DHT22;1923;48.154;11.536;2023-01-16T18:26:41;5.40;99.90
3816;DHT22;1923;48.154;11.536;2023-01-16T18:29:13;5.40;99.90
3816;DHT22;1923;48.154;11.536;2023-01-16T18:31:40;5.50;99.90
3816;DHT22;1923;48.154;11.536;2023-01-16T18:34:29;5.40;99.90
3816;DHT22;1923;48.154;11.536;2023-01-16T18:37:10;5.40;99.90
3816;DHT22;1923;48.154;11.536;2023-01-16T18:39:38;5.40;99.90
3816;DHT22;1923;48.154;11.536;2023-01-16T18:42:24;5.50;99.90
3816;DHT22;1923;48.154;11.536;2023-01-16T18:45:26;5.50;99.90
3816;DHT22;1923;48.154;11.536;2023-01-16T18:48:13;5.60;99.90
3816;DHT22;1923;48.154;11.536;2023-01-16T18:51:00;5.70;99.90
3816;DHT22;1923;48.154;11.536;2023-01-16T18:53:49;5.70;99.90
3816;DHT22;1923;48.154;11.536;2023-01-16T18:56:36;5.70;99.90
3816;DHT22;1923;48.154;11.536;2023-01-16T18:59:25;5.80;99.90
3816;DHT22;1923;48.154;11.536;2023-01-16T19:02:40;5.80;99.90
3816;DHT22;1923;48.154;11.536;2023-01-16T19:05:09;5.80;99.90
3816;DHT22;1923;48.154;11.536;2023-01-16T19:07:38;5.80;99.90
3816;DHT22;1923;48.154;11.536;2023-01-16T19:10:14;5.80;99.90
3816;DHT22;1923;48.154;11.536;2023-01-16T19:12:43;5.90;99.90
3816;DHT22;1923;48.154;11.536;2023-01-16T19:15:13;5.90;99.90
3816;DHT22;1923;48.154;11.536;2023-01-16T19:17:43;5.80;99.90
3816;DHT22;1923;48.154;11.536;2023-01-16T19:20:11;5.90;99.90
3816;DHT22;1923;48.154;11.536;2023-01-16T19:22:40;5.90;99.90
3816;DHT22;1923;48.154;11.536;2023-01-16T19:25:08;6.00;99.90
3816;DHT22;1923;48.154;11.536;2023-01-16T19:27:36;6.00;99.90
3816;DHT22;1923;48.154;11.536;2023-01-16T19:30:06;6.10;99.90
3816;DHT22;1923;48.154;11.536;2023-01-16T19:32:34;6.10;99.90
3816;DHT22;1923;48.154;11.536;2023-01-16T19:35:04;6.20;99.90
3816;DHT22;1923;48.154;11.536;2023-01-16T19:37:32;6.20;99.90
3816;DHT22;1923;48.154;11.536;2023-01-16T19:40:00;6.20;99.90
3816;DHT22;1923;48.154;11.536;2023-01-16T19:42:29;6.20;99.90
3816;DHT22;1923;48.154;11.536;2023-01-16T19:45:15;6.10;99.90
3816;DHT22;1923;48.154;11.536;2023-01-16T19:48:00;6.20;99.90
3816;DHT22;1923;48.154;11.536;2023-01-16T19:50:30;6.00;99.90
3816;DHT22;1923;48.154;11.536;2023-01-16T19:53:00;5.90;99.90
3816;DHT22;1923;48.154;11.536;2023-01-16T19:55:31;5.70;99.90
3816;DHT22;1923;48.154;11.536;2023-01-16T19:57:59;5.50;99.90
3816;DHT22;1923;48.154;11.536;2023-01-16T20:00:27;5.40;99.90
3816;DHT22;1923;48.154;11.536;2023-01-16T20:02:55;5.30;99.90
3816;DHT22;1923;48.154;11.536;2023-01-16T20:05:23;5.10;99.90
3816;DHT22;1923;48.154;11.536;2023-01-16T20:07:52;5.00;99.90
3816;DHT22;1923;48.154;11.536;2023-01-16T20:10:21;5.00;99.90
3816;DHT22;1923;48.154;11.536;2023-01-16T20:12:50;4.90;99.90
3816;DHT22;1923;48.154;11.536;2023-01-16T20:15:18;4.80;99.90
3816;DHT22;1923;48.154;11.536;2023-01-16T20:17:46;4.70;99.90
3816;DHT22;1923;48.154;11.536;2023-01-16T20:20:15;4.70;99.90
3816;DHT22;1923;48.154;11.536;2023-01-16T20:22:43;4.60;99.90
3816;DHT22;1923;48.154;11.536;2023-01-16T20:25:14;4.50;99.90
3816;DHT22;1923;48.154;11.536;2023-01-16T20:27:44;4.50;99.90
3816;DHT22;1923;48.154;11.536;2023-01-16T20:30:13;4.50;99.90
3816;DHT22;1923;48.154;11.536;2023-01-16T20:33:01;4.50;99.90
3816;DHT22;1923;48.154;11.536;2023-01-16T20:35:29;4.50;99.90
3816;DHT22;1923;48.154;11.536;2023-01-16T20:37:58;4.50;99.90
3816;DHT22;1923;48.154;11.536;2023-01-16T20:40:27;4.50;99.90
3816;DHT22;1923;48.154;11.536;2023-01-16T20:42:55;4.50;99.90
3816;DHT22;1923;48.154;11.536;2023-01-16T20:45:41;4.50;99.90
3816;DHT22;1923;48.154;11.536;2023-01-16T20:48:22;4.60;99.90
3816;DHT22;1923;48.154;11.536;2023-01-16T20:50:51;4.60;99.90
3816;DHT22;1923;48.154;11.536;2023-01-16T20:53:19;4.60;99.90
3816;DHT22;1923;48.154;11.536;2023-01-16T20:55:49;4.60;99.90
3816;DHT22;1923;48.154;11.536;2023-01-16T20:58:17;4.60;99.90
3816;DHT22;1923;48.154;11.536;2023-01-16T21:00:45;4.60;99.90
3816;DHT22;1923;48.154;11.536;2023-01-16T21:03:13;4.60;99.90
3816;DHT22;1923;48.154;11.536;2023-01-16T21:05:41;4.60;99.90
3816;DHT22;1923;48.154;11.536;2023-01-16T21:08:09;4.70;99.90
3816;DHT22;1923;48.154;11.536;2023-01-16T21:10:37;4.60;99.90
3816;DHT22;1923;48.154;11.536;2023-01-16T21:13:09;4.60;99.90
3816;DHT22;1923;48.154;11.536;2023-01-16T21:15:55;4.60;99.90
3816;DHT22;1923;48.154;11.536;2023-01-16T21:18:44;4.60;99.90
3816;DHT22;1923;48.154;11.536;2023-01-16T21:21:30;4.50;99.90
3816;DHT22;1923;48.154;11.536;2023-01-16T21:24:18;4.60;99.90
3816;DHT22;1923;48.154;11.536;2023-01-16T21:26:47;4.60;99.90
3816;DHT22;1923;48.154;11.536;2023-01-16T21:29:17;4.40;99.90
3816;DHT22;1923;48.154;11.536;2023-01-16T21:31:44;4.50;99.90
3816;DHT22;1923;48.154;11.536;2023-01-16T21:34:13;4.40;99.90
3816;DHT22;1923;48.154;11.536;2023-01-16T21:36:41;4.40;99.90
3816;DHT22;1923;48.154;11.536;2023-01-16T21:39:11;4.50;99.90
3816;DHT22;1923;48.154;11.536;2023-01-16T21:41:39;4.40;99.90
3816;DHT22;1923;48.154;11.536;2023-01-16T21:44:26;4.40;99.90
3816;DHT22;1923;48.154;11.536;2023-01-16T21:47:12;4.40;99.90
3816;DHT22;1923;48.154;11.536;2023-01-16T21:49:41;4.40;99.90
3816;DHT22;1923;48.154;11.536;2023-01-16T21:52:09;4.40;99.90
3816;DHT22;1923;48.154;11.536;2023-01-16T21:54:37;4.40;99.90
3816;DHT22;1923;48.154;11.536;2023-01-16T21:57:05;4.30;99.90
3816;DHT22;1923;48.154;11.536;2023-01-16T21:59:35;4.30;99.90
3816;DHT22;1923;48.154;11.536;2023-01-16T22:02:03;4.50;99.90
3816;DHT22;1923;48.154;11.536;2023-01-16T22:04:31;4.30;99.90
3816;DHT22;1923;48.154;11.536;2023-01-16T22:06:59;4.30;99.90
3816;DHT22;1923;48.154;11.536;2023-01-16T22:09:27;4.30;99.90
3816;DHT22;1923;48.154;11.536;2023-01-16T22:11:55;4.20;99.90
3816;DHT22;1923;48.154;11.536;2023-01-16T22:14:56;4.30;99.90
3816;DHT22;1923;48.154;11.536;2023-01-16T22:17:42;4.30;99.90
3816;DHT22;1923;48.154;11.536;2023-01-16T22:20:14;4.20;99.90
3816;DHT22;1923;48.154;11.536;2023-01-16T22:22:57;4.20;99.90
3816;DHT22;1923;48.154;11.536;2023-01-16T22:25:26;4.20;99.90
3816;DHT22;1923;48.154;11.536;2023-01-16T22:27:56;4.20;99.90
3816;DHT22;1923;48.154;11.536;2023-01-16T22:30:26;4.20;99.90
3816;DHT22;1923;48.154;11.536;2023-01-16T22:32:54;4.20;99.90
3816;DHT22;1923;48.154;11.536;2023-01-16T22:35:22;4.20;99.90
3816;DHT22;1923;48.154;11.536;2023-01-16T22:37:51;4.10;99.90
3816;DHT22;1923;48.154;11.536;2023-01-16T22:40:19;4.10;99.90
3816;DHT22;1923;48.154;11.536;2023-01-16T22:42:47;4.00;99.90
3816;DHT22;1923;48.154;11.536;2023-01-16T22:45:15;4.00;99.90
3816;DHT22;1923;48.154;11.536;2023-01-16T22:48:03;4.00;99.90
3816;DHT22;1923;48.154;11.536;2023-01-16T22:50:31;4.00;99.90
3816;DHT22;1923;48.154;11.536;2023-01-16T22:52:59;4.00;99.90
3816;DHT22;1923;48.154;11.536;2023-01-16T22:55:27;3.90;99.90
3816;DHT22;1923;48.154;11.536;2023-01-16T22:57:57;3.90;99.90
3816;DHT22;1923;48.154;11.536;2023-01-16T23:00:25;4.10;99.90
3816;DHT22;1923;48.154;11.536;2023-01-16T23:02:53;4.10;99.90
3816;DHT22;1923;48.154;11.536;2023-01-16T23:05:22;4.00;99.90
3816;DHT22;1923;48.154;11.536;2023-01-16T23:07:51;4.00;99.90
3816;DHT22;1923;48.154;11.536;2023-01-16T23:10:20;4.10;99.90
3816;DHT22;1923;48.154;11.536;2023-01-16T23:12:51;4.10;99.90
3816;DHT22;1923;48.154;11.536;2023-01-16T23:15:19;4.00;99.90
3816;DHT22;1923;48.154;11.536;2023-01-16T23:17:47;4.10;99.90
3816;DHT22;1923;48.154;11.536;2023-01-16T23:20:16;4.10;99.90
3816;DHT22;1923;48.154;11.536;2023-01-16T23:22:45;4.10;99.90
3816;DHT22;1923;48.154;11.536;2023-01-16T23:25:14;4.10;99.90
3816;DHT22;1923;48.154;11.536;2023-01-16T23:27:42;4.10;99.90
3816;DHT22;1923;48.154;11.536;2023-01-16T23:30:11;4.00;99.90
3816;DHT22;1923;48.154;11.536;2023-01-16T23:32:39;4.10;99.90
3816;DHT22;1923;48.154;11.536;2023-01-16T23:35:07;4.10;99.90
3816;DHT22;1923;48.154;11.536;2023-01-16T23:37:36;4.10;99.90
3816;DHT22;1923;48.154;11.536;2023-01-16T23:40:07;4.10;99.90
3816;DHT22;1923;48.154;11.536;2023-01-16T23:42:35;4.00;99.90
3816;DHT22;1923;48.154;11.536;2023-01-16T23:45:21;4.00;99.90
3816;DHT22;1923;48.154;11.536;2023-01-16T23:47:49;4.00;99.90
3816;DHT22;1923;48.154;11.536;2023-01-16T23:50:17;3.90;99.90
3816;DHT22;1923;48.154;11.536;2023-01-16T23:52:45;3.80;99.90
3816;DHT22;1923;48.154;11.536;2023-01-16T23:55:14;3.90;99.90
3816;DHT22;1923;48.154;11.536;2023-01-16T23:57:43;3.90;99.90
